createdAt,value
2022-09-04T00:00:21.921Z,55.14
2022-09-04T00:03:36.174Z,55.40
2022-09-04T00:06:12.975Z,55.50
2022-09-04T00:09:12.503Z,55.35
2022-09-04T00:11:56.019Z,54.30
2022-09-04T00:14:41.924Z,55.99
2022-09-04T00:17:32.458Z,55.80
2022-09-04T00:20:09.567Z,55.76
2022-09-04T00:22:44.652Z,55.79
2022-09-04T00:25:19.263Z,56.25
2022-09-04T00:27:53.517Z,57.32
2022-09-04T00:30:26.912Z,55.84
2022-09-04T00:33:33.484Z,58.63
2022-09-04T00:36:06.138Z,57.77
2022-09-04T00:38:59.612Z,57.37
2022-09-04T00:41:33.635Z,57.32
2022-09-04T00:44:27.737Z,55.46
2022-09-04T00:47:07.454Z,56.49
2022-09-04T00:49:42.815Z,56.34
2022-09-04T00:52:29.604Z,56.25
2022-09-04T00:55:22.377Z,54.75
2022-09-04T00:58:30.970Z,55.29
2022-09-04T01:01:01.179Z,54.74
2022-09-04T01:03:36.918Z,54.84
2022-09-04T01:06:32.873Z,56.26
2022-09-04T01:09:45.483Z,56.93
2022-09-04T01:12:33.196Z,57.92
2022-09-04T01:15:14.679Z,57.11
2022-09-04T01:18:04.458Z,58.88
2022-09-04T01:20:54.639Z,59.85
2022-09-04T01:23:22.800Z,59.57
2022-09-04T01:26:01.770Z,59.22
2022-09-04T01:28:52.603Z,58.31
2022-09-04T01:31:39.446Z,61.23
2022-09-04T01:34:20.856Z,61.02
2022-09-04T01:36:57.078Z,60.54
2022-09-04T01:39:26.698Z,60.63
2022-09-04T01:42:12.616Z,59.91
2022-09-04T01:44:41.377Z,59.00
2022-09-04T01:47:26.335Z,59.12
2022-09-04T01:50:00.861Z,57.40
2022-09-04T01:52:36.816Z,56.89
2022-09-04T01:55:17.180Z,57.48
2022-09-04T01:58:09.889Z,57.35
2022-09-04T02:01:04.763Z,58.07
2022-09-04T02:03:40.348Z,58.99
2022-09-04T02:06:36.794Z,59.53
2022-09-04T02:09:33.960Z,59.12
2022-09-04T02:12:36.037Z,59.06
2022-09-04T02:15:18.254Z,59.61
2022-09-04T02:18:15.595Z,59.91
2022-09-04T02:20:50.116Z,59.71
2022-09-04T02:23:29.935Z,60.20
2022-09-04T02:26:04.917Z,59.49
2022-09-04T02:29:01.985Z,60.16
2022-09-04T02:31:49.369Z,61.01
2022-09-04T02:34:30.364Z,60.52
2022-09-04T02:37:26.915Z,61.25
2022-09-04T02:40:04.303Z,60.00
2022-09-04T02:42:40.046Z,59.70
2022-09-04T02:45:14.350Z,59.74
2022-09-04T02:48:05.698Z,59.72
2022-09-04T02:50:55.675Z,59.16
2022-09-04T02:53:31.575Z,58.93
2022-09-04T02:56:21.504Z,59.71
2022-09-04T02:59:28.728Z,59.95
2022-09-04T03:02:05.504Z,59.29
2022-09-04T03:05:05.150Z,58.91
2022-09-04T03:07:49.629Z,58.09
2022-09-04T03:10:20.294Z,58.02
2022-09-04T03:12:52.758Z,58.09
2022-09-04T03:15:35.123Z,57.62
2022-09-04T03:18:14.973Z,57.53
2022-09-04T03:21:08.527Z,57.95
2022-09-04T03:23:46.318Z,58.13
2022-09-04T03:26:20.964Z,57.28
2022-09-04T03:28:54.673Z,58.03
2022-09-04T03:31:29.482Z,57.95
2022-09-04T03:34:11.627Z,57.81
2022-09-04T03:37:12.873Z,57.22
2022-09-04T03:40:04.595Z,57.45
2022-09-04T03:42:45.441Z,57.53
2022-09-04T03:45:22.861Z,58.32
2022-09-04T03:48:09.986Z,57.62
2022-09-04T03:50:57.004Z,55.26
2022-09-04T03:53:41.126Z,56.30
2022-09-04T03:56:43.542Z,55.89
2022-09-04T03:59:26.632Z,57.27
2022-09-04T04:02:04.914Z,57.14
2022-09-04T04:04:49.418Z,56.76
2022-09-04T04:07:47.071Z,57.01
2022-09-04T04:10:55.382Z,58.17
2022-09-04T04:13:48.649Z,57.50
2022-09-04T04:16:32.329Z,57.87
2022-09-04T04:19:24.926Z,57.85
2022-09-04T04:22:21.795Z,59.20
2022-09-04T04:24:57.577Z,59.53
2022-09-04T04:28:01.644Z,60.44
2022-09-04T04:30:37.472Z,61.48
2022-09-04T04:33:18.014Z,60.96
2022-09-04T04:36:10.265Z,60.56
2022-09-04T04:39:19.880Z,60.43
2022-09-04T04:42:10.553Z,60.81
2022-09-04T04:45:24.655Z,60.46
2022-09-04T04:48:00.671Z,60.74
2022-09-04T04:50:42.670Z,60.36
2022-09-04T04:53:24.959Z,60.23
2022-09-04T04:56:15.357Z,60.73
2022-09-04T04:59:20.787Z,59.43
2022-09-04T05:01:51.956Z,60.63
2022-09-04T05:04:25.478Z,60.71
2022-09-04T05:07:01.791Z,61.16
2022-09-04T05:09:37.832Z,61.06
2022-09-04T05:12:15.414Z,60.51
2022-09-04T05:14:55.929Z,60.36
2022-09-04T05:17:45.455Z,60.39
2022-09-04T05:20:38.615Z,60.14
2022-09-04T05:23:24.928Z,60.14
2022-09-04T05:26:26.724Z,59.42
2022-09-04T05:29:18.273Z,61.32
2022-09-04T05:32:31.124Z,59.78
2022-09-04T05:35:12.156Z,59.51
2022-09-04T05:38:07.736Z,58.69
2022-09-04T05:40:50.941Z,58.91
2022-09-04T05:43:38.096Z,59.22
2022-09-04T05:46:22.528Z,59.45
2022-09-04T05:49:09.454Z,59.03
2022-09-04T05:52:01.090Z,59.30
2022-09-04T05:54:55.714Z,59.89
2022-09-04T05:57:49.320Z,58.57
2022-09-04T06:00:21.091Z,58.03
2022-09-04T06:03:00.433Z,58.44
2022-09-04T06:05:58.476Z,59.39
2022-09-04T06:08:54.520Z,59.98
2022-09-04T06:11:45.142Z,59.99
2022-09-04T06:14:20.638Z,59.36
2022-09-04T06:17:14.055Z,59.00
2022-09-04T06:20:02.538Z,58.71
2022-09-04T06:23:03.364Z,57.82
2022-09-04T06:25:58.842Z,58.50
2022-09-04T06:28:40.920Z,57.58
2022-09-04T06:31:13.329Z,57.86
2022-09-04T06:33:44.762Z,56.77
2022-09-04T06:36:38.998Z,57.01
2022-09-04T06:39:22.417Z,57.32
2022-09-04T06:42:00.488Z,56.99
2022-09-04T06:45:04.506Z,55.75
2022-09-04T06:48:11.637Z,56.45
2022-09-04T06:50:46.689Z,55.48
2022-09-04T06:53:43.428Z,55.16
2022-09-04T06:56:24.240Z,55.61
2022-09-04T06:59:27.284Z,56.05
2022-09-04T07:02:04.299Z,56.19
2022-09-04T07:04:48.370Z,55.57
2022-09-04T07:07:19.818Z,55.39
2022-09-04T07:10:01.332Z,55.15
2022-09-04T07:12:41.788Z,55.22
2022-09-04T07:15:49.899Z,54.50
2022-09-04T07:18:39.017Z,54.96
2022-09-04T07:21:48.743Z,53.96
2022-09-04T07:24:39.757Z,54.48
2022-09-04T07:27:42.117Z,53.52
2022-09-04T07:30:16.081Z,53.64
2022-09-04T07:32:51.511Z,53.65
2022-09-04T07:35:39.497Z,53.88
2022-09-04T07:38:34.973Z,52.97
2022-09-04T07:41:20.119Z,52.17
2022-09-04T07:44:04.182Z,51.46
2022-09-04T07:47:12.190Z,51.54
2022-09-04T07:50:17.670Z,51.32
2022-09-04T07:53:04.156Z,51.03
2022-09-04T07:55:41.496Z,51.91
2022-09-04T07:58:20.114Z,51.02
2022-09-04T08:01:00.513Z,51.67
2022-09-04T08:03:53.844Z,51.26
2022-09-04T08:06:34.065Z,51.10
2022-09-04T08:09:05.739Z,51.05
2022-09-04T08:11:34.028Z,50.59
2022-09-04T08:14:18.570Z,51.47
2022-09-04T08:17:24.623Z,50.42
2022-09-04T08:20:12.771Z,49.81
2022-09-04T08:23:13.286Z,49.01
2022-09-04T08:25:53.940Z,49.06
2022-09-04T08:28:59.455Z,49.82
2022-09-04T08:31:37.480Z,48.90
2022-09-04T08:34:11.908Z,48.22
2022-09-04T08:36:52.892Z,48.67
2022-09-04T08:39:32.875Z,49.25
2022-09-04T08:42:17.621Z,49.44
2022-09-04T08:45:04.602Z,48.48
2022-09-04T08:47:55.353Z,48.35
2022-09-04T08:51:03.463Z,48.97
2022-09-04T08:53:47.748Z,48.36
2022-09-04T08:56:39.104Z,48.69
2022-09-04T08:59:42.784Z,48.73
2022-09-04T09:02:41.955Z,48.46
2022-09-04T09:05:45.968Z,49.11
2022-09-04T09:08:21.784Z,48.68
2022-09-04T09:11:19.681Z,48.96
2022-09-04T09:14:25.576Z,48.95
2022-09-04T09:17:10.294Z,48.59
2022-09-04T09:20:02.925Z,47.79
2022-09-04T09:23:10.788Z,47.44
2022-09-04T09:25:44.100Z,47.87
2022-09-04T09:28:23.478Z,47.52
2022-09-04T09:31:17.073Z,47.59
2022-09-04T09:34:19.352Z,47.27
2022-09-04T09:37:06.790Z,47.53
2022-09-04T09:40:09.801Z,47.56
2022-09-04T09:42:48.939Z,47.62
2022-09-04T09:45:27.887Z,47.68
2022-09-04T09:48:14.687Z,47.12
2022-09-04T09:51:10.127Z,47.55
2022-09-04T09:54:16.725Z,47.50
2022-09-04T09:57:00.325Z,47.15
2022-09-04T09:59:55.733Z,47.53
2022-09-04T10:02:33.608Z,47.42
2022-09-04T10:05:11.215Z,47.40
2022-09-04T10:08:21.743Z,47.38
2022-09-04T10:11:23.932Z,46.39
2022-09-04T10:14:17.075Z,46.84
2022-09-04T10:17:30.896Z,47.12
2022-09-04T10:20:24.025Z,46.95
2022-09-04T10:23:08.012Z,47.61
2022-09-04T10:25:55.552Z,47.49
2022-09-04T10:28:45.251Z,47.56
2022-09-04T10:31:32.949Z,47.65
2022-09-04T10:34:41.728Z,47.41
2022-09-04T10:37:19.490Z,47.59
2022-09-04T10:40:18.705Z,47.96
2022-09-04T10:43:11.681Z,48.37
2022-09-04T10:46:01.230Z,49.20
2022-09-04T10:48:59.100Z,50.90
2022-09-04T10:51:37.524Z,50.63
2022-09-04T10:54:33.848Z,51.60
2022-09-04T10:57:31.927Z,53.20
2022-09-04T11:00:08.685Z,51.68
2022-09-04T11:02:57.233Z,52.72
2022-09-04T11:05:37.896Z,53.36
2022-09-04T11:08:36.573Z,55.36
2022-09-04T11:11:23.691Z,55.67
2022-09-04T11:14:06.917Z,56.67
2022-09-04T11:16:57.045Z,54.71
2022-09-04T11:20:03.452Z,53.15
2022-09-04T11:22:46.219Z,53.59
2022-09-04T11:25:52.532Z,51.24
2022-09-04T11:28:57.107Z,50.20
2022-09-04T11:32:03.361Z,50.15
2022-09-04T11:34:57.337Z,50.31
2022-09-04T11:37:36.731Z,49.19
2022-09-04T11:40:26.480Z,48.84
2022-09-04T11:43:01.214Z,48.60
2022-09-04T11:45:41.636Z,47.55
2022-09-04T11:48:37.901Z,46.91
2022-09-04T11:51:39.726Z,45.75
2022-09-04T11:54:11.317Z,44.69
2022-09-04T11:56:58.298Z,44.23
2022-09-04T11:59:56.395Z,44.53
2022-09-04T12:02:30.957Z,44.12
2022-09-04T12:05:19.155Z,43.25
2022-09-04T12:07:59.638Z,44.46
2022-09-04T12:10:28.790Z,43.80
2022-09-04T12:13:15.864Z,43.25
2022-09-04T12:15:54.729Z,42.24
2022-09-04T12:18:56.186Z,41.86
2022-09-04T12:21:54.280Z,42.25
2022-09-04T12:24:34.342Z,41.54
2022-09-04T12:27:39.365Z,41.65
2022-09-04T12:30:08.041Z,40.50
2022-09-04T12:32:49.002Z,40.21
2022-09-04T12:35:39.493Z,40.35
2022-09-04T12:38:15.471Z,39.92
2022-09-04T12:40:58.786Z,39.21
2022-09-04T12:43:43.177Z,39.92
2022-09-04T12:46:14.479Z,38.69
2022-09-04T12:48:57.018Z,39.29
2022-09-04T12:51:31.563Z,39.77
2022-09-04T12:54:13.878Z,40.04
2022-09-04T12:56:49.094Z,40.11
2022-09-04T12:59:45.213Z,40.60
2022-09-04T13:02:38.482Z,39.80
2022-09-04T13:05:41.892Z,39.77
2022-09-04T13:09:02.298Z,38.95
2022-09-04T13:11:54.751Z,38.23
2022-09-04T13:14:54.140Z,37.67
2022-09-04T13:17:44.312Z,37.31
2022-09-04T13:20:22.503Z,37.83
2022-09-04T13:23:11.087Z,37.13
2022-09-04T13:26:12.267Z,37.14
2022-09-04T13:28:58.589Z,38.28
2022-09-04T13:31:42.095Z,37.68
2022-09-04T13:34:55.085Z,37.48
2022-09-04T13:37:56.476Z,36.54
2022-09-04T13:41:03.649Z,37.62
2022-09-04T13:43:41.414Z,37.37
2022-09-04T13:46:18.541Z,36.16
2022-09-04T13:48:52.315Z,35.81
2022-09-04T13:51:31.141Z,34.60
2022-09-04T13:54:27.103Z,34.65
2022-09-04T13:57:14.878Z,34.21
2022-09-04T13:59:46.301Z,33.84
2022-09-04T14:02:24.856Z,33.87
2022-09-04T14:05:01.330Z,33.83
2022-09-04T14:07:44.820Z,32.33
2022-09-04T14:10:18.300Z,32.71
2022-09-04T14:13:03.405Z,32.67
2022-09-04T14:15:41.073Z,32.04
2022-09-04T14:18:14.258Z,32.19
2022-09-04T14:21:01.421Z,32.29
2022-09-04T14:23:42.308Z,32.57
2022-09-04T14:26:20.715Z,32.68
2022-09-04T14:28:54.121Z,32.77
2022-09-04T14:31:34.059Z,31.93
2022-09-04T14:34:16.245Z,33.05
2022-09-04T14:37:26.962Z,34.00
2022-09-04T14:40:10.290Z,34.14
2022-09-04T14:42:46.914Z,35.03
2022-09-04T14:45:32.440Z,34.56
2022-09-04T14:48:06.789Z,34.68
2022-09-04T14:50:47.601Z,34.00
2022-09-04T14:53:29.673Z,33.90
2022-09-04T14:56:26.232Z,35.03
2022-09-04T14:59:00.287Z,35.04
2022-09-04T15:01:29.536Z,34.67
2022-09-04T15:04:10.831Z,34.25
2022-09-04T15:07:10.823Z,34.10
2022-09-04T15:09:43.811Z,34.97
2022-09-04T15:12:25.546Z,34.87
2022-09-04T15:14:59.359Z,34.18
2022-09-04T15:17:28.670Z,34.13
2022-09-04T15:20:14.185Z,34.10
2022-09-04T15:23:02.725Z,34.25
2022-09-04T15:25:57.651Z,34.04
2022-09-04T15:28:38.708Z,34.29
2022-09-04T15:31:16.021Z,35.11
2022-09-04T15:33:47.367Z,35.16
2022-09-04T15:36:20.322Z,35.19
2022-09-04T15:38:52.236Z,34.72
2022-09-04T15:41:35.285Z,35.02
2022-09-04T15:44:39.085Z,34.84
2022-09-04T15:47:38.525Z,35.37
2022-09-04T15:50:26.469Z,35.76
2022-09-04T15:53:00.673Z,36.44
2022-09-04T15:55:37.368Z,35.30
2022-09-04T15:58:23.803Z,36.03
2022-09-04T16:01:16.797Z,36.75
2022-09-04T16:03:55.517Z,36.74
2022-09-04T16:06:38.035Z,37.05
2022-09-04T16:09:17.054Z,37.72
2022-09-04T16:12:00.987Z,36.96
2022-09-04T16:14:44.875Z,37.08
2022-09-04T16:17:25.292Z,36.91
2022-09-04T16:20:07.970Z,36.33
2022-09-04T16:22:50.101Z,37.21
2022-09-04T16:25:19.288Z,37.05
2022-09-04T16:27:54.519Z,36.72
2022-09-04T16:30:35.409Z,37.50
2022-09-04T16:33:12.953Z,37.16
2022-09-04T16:35:52.570Z,37.49
2022-09-04T16:38:26.057Z,37.85
2022-09-04T16:40:59.592Z,38.25
2022-09-04T16:43:29.402Z,39.57
2022-09-04T16:46:23.746Z,39.41
2022-09-04T16:48:58.172Z,40.21
2022-09-04T16:51:40.977Z,40.55
2022-09-04T16:54:21.259Z,41.08
2022-09-04T16:57:12.420Z,42.33
2022-09-04T16:59:58.809Z,41.46
2022-09-04T17:02:49.025Z,42.14
2022-09-04T17:05:35.312Z,42.04
2022-09-04T17:08:17.989Z,41.86
2022-09-04T17:11:30.568Z,42.78
2022-09-04T17:14:32.408Z,43.17
2022-09-04T17:17:31.366Z,43.21
2022-09-04T17:20:08.249Z,43.99
2022-09-04T17:28:09.365Z,44.58
2022-09-04T17:29:19.625Z,44.28
2022-09-04T17:29:22.444Z,44.57
2022-09-04T17:31:53.855Z,45.31
2022-09-04T17:40:38.228Z,45.40
2022-09-04T17:40:44.351Z,45.01
2022-09-04T17:43:29.585Z,45.39
2022-09-04T17:46:26.679Z,45.27
2022-09-04T17:48:56.080Z,44.94
2022-09-04T17:51:27.928Z,44.74
2022-09-04T17:54:02.348Z,45.41
2022-09-04T17:56:55.145Z,45.67
2022-09-04T17:59:28.880Z,45.59
2022-09-04T18:02:21.467Z,46.37
2022-09-04T18:05:11.907Z,44.68
2022-09-04T18:08:10.051Z,44.31
2022-09-04T18:10:52.310Z,44.59
2022-09-04T18:13:40.849Z,45.55
2022-09-04T18:16:33.534Z,45.26
2022-09-04T18:19:15.003Z,45.24
2022-09-04T18:21:46.004Z,45.47
2022-09-04T18:24:21.284Z,45.26
2022-09-04T18:27:11.696Z,46.87
2022-09-04T18:30:58.588Z,46.82
2022-09-04T18:37:16.635Z,46.38
2022-09-04T18:37:22.455Z,46.66
2022-09-04T18:39:08.902Z,46.67
2022-09-04T18:49:28.312Z,47.68
2022-09-04T18:50:29.642Z,47.04
2022-09-04T18:50:48.964Z,46.58
2022-09-04T18:54:10.456Z,47.38
2022-09-04T18:56:44.902Z,47.77
2022-09-04T18:59:23.824Z,47.80
2022-09-04T19:02:14.276Z,49.59
2022-09-04T19:05:12.006Z,49.79
2022-09-04T19:07:47.256Z,49.62
2022-09-04T19:10:22.377Z,50.45
2022-09-04T19:12:58.309Z,51.48
2022-09-04T19:15:49.423Z,49.96
2022-09-04T19:18:30.695Z,48.93
2022-09-04T19:21:02.473Z,48.25
2022-09-04T19:23:44.227Z,48.90
2022-09-04T19:26:47.923Z,49.65
2022-09-04T19:29:23.664Z,49.03
2022-09-04T19:32:09.082Z,48.87
2022-09-04T19:35:07.360Z,50.85
2022-09-04T19:40:36.634Z,51.25
2022-09-04T19:45:55.730Z,49.96
2022-09-04T19:46:15.861Z,50.21
2022-09-04T19:47:27.462Z,50.37
2022-09-04T19:53:34.344Z,51.27
2022-09-04T19:53:37.787Z,51.15
2022-09-04T19:56:45.710Z,50.57
2022-09-04T19:59:30.463Z,50.83
2022-09-04T20:02:02.783Z,49.60
2022-09-04T20:04:42.324Z,49.60
2022-09-04T20:07:24.315Z,50.00
2022-09-04T20:09:56.536Z,50.35
2022-09-04T20:12:32.459Z,50.53
2022-09-04T20:15:12.209Z,50.57
2022-09-04T20:18:13.497Z,50.62
2022-09-04T20:20:59.600Z,49.37
2022-09-04T20:23:43.992Z,50.38
2022-09-04T20:26:25.722Z,51.08
2022-09-04T20:29:14.092Z,51.57
2022-09-04T20:32:11.822Z,51.02
2022-09-04T20:35:18.103Z,50.86
2022-09-04T20:37:56.620Z,51.17
2022-09-04T20:40:36.701Z,49.96
2022-09-04T20:43:28.816Z,49.67
2022-09-04T20:50:50.221Z,49.89
2022-09-04T20:52:49.568Z,51.23
2022-09-04T20:52:57.425Z,51.76
2022-09-04T20:55:04.576Z,50.44
2022-09-04T21:02:19.622Z,50.16
2022-09-04T21:03:23.362Z,50.02
2022-09-04T21:03:30.961Z,50.29
2022-09-04T21:06:25.429Z,51.51
2022-09-04T21:09:04.024Z,52.35
2022-09-04T21:11:45.998Z,51.68
2022-09-04T21:14:45.511Z,51.28
2022-09-04T21:17:33.775Z,51.27
2022-09-04T21:20:11.520Z,51.49
2022-09-04T21:23:04.160Z,51.40
2022-09-04T21:26:00.153Z,51.14
2022-09-04T21:29:07.287Z,50.85
2022-09-04T21:32:03.725Z,51.00
2022-09-04T21:35:13.215Z,52.53
2022-09-04T21:38:03.263Z,53.81
2022-09-04T21:40:50.761Z,54.45
2022-09-04T21:43:35.701Z,55.55
2022-09-04T21:46:39.118Z,55.84
2022-09-04T21:49:29.142Z,55.42
2022-09-04T21:52:02.881Z,54.49
2022-09-04T21:57:19.363Z,54.73
2022-09-04T22:02:27.917Z,54.35
2022-09-04T22:02:43.087Z,54.87
2022-09-04T22:04:44.455Z,54.69
2022-09-04T22:13:04.518Z,54.43
2022-09-04T22:13:30.494Z,54.52
2022-09-04T22:14:17.162Z,54.40
2022-09-04T22:17:07.366Z,54.46
2022-09-04T22:20:03.846Z,54.32
2022-09-04T22:23:08.337Z,55.49
2022-09-04T22:25:47.691Z,55.92
2022-09-04T22:28:22.303Z,56.50
2022-09-04T22:31:14.909Z,56.32
2022-09-04T22:34:15.922Z,54.81
2022-09-04T22:37:20.421Z,55.86
2022-09-04T22:40:14.967Z,54.31
2022-09-04T22:43:12.417Z,54.90
2022-09-04T22:46:11.486Z,55.15
2022-09-04T22:49:12.256Z,54.98
2022-09-04T22:52:00.863Z,53.87
2022-09-04T22:55:17.824Z,53.59
2022-09-04T22:58:15.485Z,53.50
2022-09-04T23:01:12.455Z,53.26
2022-09-04T23:04:09.150Z,53.33
2022-09-04T23:12:15.541Z,53.34
2022-09-04T23:13:49.354Z,53.72
2022-09-04T23:14:02.316Z,54.38
2022-09-04T23:16:36.253Z,54.35
2022-09-04T23:23:30.626Z,55.54
2022-09-04T23:26:47.170Z,56.23
2022-09-04T23:26:50.537Z,55.84
2022-09-04T23:29:21.457Z,55.61
2022-09-04T23:32:06.899Z,54.86
2022-09-04T23:35:15.752Z,54.44
2022-09-04T23:37:45.417Z,56.67
2022-09-04T23:40:28.346Z,56.28
2022-09-04T23:43:25.844Z,56.79
2022-09-04T23:46:34.299Z,56.47
2022-09-04T23:49:35.288Z,56.78
2022-09-04T23:52:18.722Z,57.50
2022-09-04T23:55:06.659Z,56.77
2022-09-04T23:57:48.147Z,56.81
